Time;durP1;ratioP1;P1;durP2;ratioP2;P2;SDS_P1;SDS_P2;PMS_P1;PMS_P2;Temp;Humidity;BMP_temperature;BMP_pressure;BME280_temperature;BME280_humidity;BME280_pressure;Samples;Min_cycle;Max_cycle;Signal;HPM_P1;HPM_P2
2023/09/15 00:01:08;;;;;;;5.47;3.13;;;;;;;11.18;100.00;100478.84;5045605;28;20241;-74
2023/09/15 00:03:33;;;;;;;3.13;2.30;;;;;;;11.15;100.00;100484.16;5078612;28;20231;-75
2023/09/15 00:05:59;;;;;;;6.83;2.90;;;;;;;11.14;100.00;100485.06;5050540;28;20193;-73
2023/09/15 00:08:25;;;;;;;5.33;3.20;;;;;;;11.05;100.00;100483.78;5064783;28;20181;-71
2023/09/15 00:10:51;;;;;;;5.60;3.00;;;;;;;10.97;100.00;100478.19;5032115;28;20230;-72
2023/09/15 00:13:17;;;;;;;7.93;3.20;;;;;;;11.04;100.00;100482.13;5041479;28;20656;-74
2023/09/15 00:15:42;;;;;;;5.40;2.97;;;;;;;11.04;100.00;100478.69;5027790;28;20178;-73
2023/09/15 00:18:08;;;;;;;5.30;2.80;;;;;;;11.02;100.00;100481.34;5039753;28;20285;-75
2023/09/15 00:20:33;;;;;;;4.93;3.07;;;;;;;11.01;100.00;100482.25;5021053;28;20270;-75
2023/09/15 00:22:58;;;;;;;8.47;3.10;;;;;;;10.95;100.00;100480.00;5038641;28;20177;-75
2023/09/15 00:25:29;;;;;;;4.23;3.07;;;;;;;10.95;100.00;100480.00;5047255;28;20268;-76
2023/09/15 00:27:57;;;;;;;6.37;3.20;;;;;;;10.81;100.00;100473.78;5039489;28;20495;-76
2023/09/15 00:30:24;;;;;;;3.43;2.57;;;;;;;10.90;100.00;100475.09;5028862;28;20562;-77
2023/09/15 00:32:50;;;;;;;5.30;3.00;;;;;;;10.90;100.00;100477.66;5056768;28;20181;-76
2023/09/15 00:35:17;;;;;;;7.53;3.93;;;;;;;10.74;100.00;100472.44;5065586;28;20178;-76
2023/09/15 00:37:43;;;;;;;7.70;3.40;;;;;;;10.78;100.00;100478.28;5055773;28;20182;-76
2023/09/15 00:40:10;;;;;;;4.93;3.53;;;;;;;10.81;100.00;100470.38;5064534;28;20566;-76
2023/09/15 00:42:36;;;;;;;5.00;2.93;;;;;;;10.85;100.00;100471.06;5051752;28;20180;-75
2023/09/15 00:45:05;;;;;;;4.00;3.00;;;;;;;10.81;100.00;100466.06;5059851;28;20219;-76
2023/09/15 00:47:31;;;;;;;6.17;3.33;;;;;;;10.79;100.00;100467.91;5071949;28;20293;-76
2023/09/15 00:49:58;;;;;;;3.33;2.60;;;;;;;10.78;100.00;100463.66;5070776;28;20207;-77
2023/09/15 00:52:23;;;;;;;10.87;3.23;;;;;;;10.79;100.00;100467.91;5043598;28;20288;-77
2023/09/15 00:54:49;;;;;;;3.67;3.00;;;;;;;10.75;100.00;100463.78;5068900;28;20266;-76
2023/09/15 00:57:15;;;;;;;3.80;3.07;;;;;;;10.77;100.00;100461.16;5065543;28;20195;-76
2023/09/15 00:59:40;;;;;;;6.43;2.87;;;;;;;10.70;100.00;100457.22;5070056;28;20188;-76
2023/09/15 01:02:06;;;;;;;4.60;3.50;;;;;;;10.63;100.00;100449.81;5036931;28;20368;-75
2023/09/15 01:04:32;;;;;;;5.97;3.57;;;;;;;10.63;100.00;100461.81;5052475;28;20625;-76
2023/09/15 01:06:57;;;;;;;5.87;3.77;;;;;;;10.58;100.00;100466.38;5059856;28;20197;-76
2023/09/15 01:09:23;;;;;;;4.67;2.77;;;;;;;10.60;100.00;100456.84;5050520;28;20181;-76
2023/09/15 01:11:50;;;;;;;8.50;3.27;;;;;;;10.58;100.00;100462.06;5039548;28;20217;-77
2023/09/15 01:14:16;;;;;;;4.70;2.93;;;;;;;10.57;100.00;100467.31;5039108;28;20224;-77
2023/09/15 01:17:14;;;;;;;4.53;3.10;;;;;;;10.43;100.00;100462.81;5043583;28;20202;-76
2023/09/15 01:20:09;;;;;;;5.37;3.27;;;;;;;10.29;100.00;100459.13;5011287;28;20211;-76
2023/09/15 01:22:54;;;;;;;5.87;3.53;;;;;;;10.37;100.00;100465.66;4993966;28;20213;-76
2023/09/15 01:25:39;;;;;;;5.37;3.10;;;;;;;10.29;100.00;100456.53;5029946;28;20208;-76
2023/09/15 01:28:35;;;;;;;4.27;3.20;;;;;;;10.26;100.00;100451.56;5029871;28;20580;-77
2023/09/15 01:31:01;;;;;;;5.57;3.77;;;;;;;10.42;100.00;100445.69;5002929;28;20657;-76
2023/09/15 01:33:27;;;;;;;5.23;3.77;;;;;;;10.44;100.00;100449.88;5012265;28;20185;-77
2023/09/15 01:35:52;;;;;;;6.03;3.30;;;;;;;10.33;100.00;100452.09;5029031;28;20190;-76
2023/09/15 01:38:18;;;;;;;5.97;3.90;;;;;;;10.25;100.00;100456.78;5029431;28;20212;-77
2023/09/15 01:40:43;;;;;;;4.73;3.37;;;;;;;10.33;100.00;100452.94;5007774;28;20251;-76
2023/09/15 01:43:09;;;;;;;5.53;3.60;;;;;;;10.33;100.00;100452.09;5032798;28;20194;-76
2023/09/15 01:45:35;;;;;;;6.53;3.47;;;;;;;10.34;100.00;100452.03;5033194;28;20654;-77
2023/09/15 01:48:01;;;;;;;5.77;3.10;;;;;;;10.33;100.00;100449.50;5030461;28;20257;-77
2023/09/15 01:50:28;;;;;;;4.30;3.20;;;;;;;10.31;100.00;100457.31;5022825;28;20316;-76
2023/09/15 01:52:55;;;;;;;6.83;3.80;;;;;;;10.33;100.00;100454.66;5032651;28;20181;-77
2023/09/15 01:55:21;;;;;;;5.00;2.80;;;;;;;10.35;100.00;100452.84;5017022;28;20277;-77
2023/09/15 01:57:46;;;;;;;4.77;3.33;;;;;;;10.37;100.00;100447.66;5072829;28;20374;-76
2023/09/15 02:00:12;;;;;;;5.57;3.50;;;;;;;10.33;100.00;100452.94;5061443;28;20725;-76
2023/09/15 02:02:38;;;;;;;5.30;3.67;;;;;;;10.38;100.00;100451.91;5033226;28;20174;-76
2023/09/15 02:05:03;;;;;;;7.03;2.83;;;;;;;10.41;100.00;100457.75;5061658;28;20201;-76
2023/09/15 02:07:29;;;;;;;8.77;3.93;;;;;;;10.37;100.00;100461.38;5073081;28;20177;-76
2023/09/15 02:09:54;;;;;;;7.67;3.80;;;;;;;10.20;100.00;100457.00;5071809;28;20560;-77
2023/09/15 02:12:19;;;;;;;5.70;3.53;;;;;;;10.37;100.00;100461.38;5058382;28;20217;-76
2023/09/15 02:14:44;;;;;;;6.83;3.53;;;;;;;10.37;100.00;100460.53;5054776;28;20213;-76
2023/09/15 02:17:14;;;;;;;4.47;3.27;;;;;;;10.22;100.00;100455.19;5054828;28;20204;-76
2023/09/15 02:19:40;;;;;;;6.70;3.30;;;;;;;10.27;100.00;100463.53;5053562;28;20178;-77
2023/09/15 02:22:05;;;;;;;6.27;3.43;;;;;;;10.28;100.00;100451.47;5061231;28;20237;-76
2023/09/15 02:24:31;;;;;;;4.33;3.27;;;;;;;10.29;100.00;100453.97;5052549;28;20280;-76
2023/09/15 02:26:57;;;;;;;3.80;3.30;;;;;;;10.14;100.00;100450.38;5051851;28;20180;-77
2023/09/15 02:29:22;;;;;;;4.87;3.50;;;;;;;10.20;100.00;100451.03;5051125;28;20181;-76
2023/09/15 02:31:47;;;;;;;4.90;3.30;;;;;;;10.16;100.00;100447.78;5037920;28;20753;-76
2023/09/15 02:34:13;;;;;;;4.57;3.07;;;;;;;10.09;100.00;100442.06;5033204;28;20197;-76
2023/09/15 02:36:38;;;;;;;5.53;3.30;;;;;;;10.02;100.00;100451.81;5034434;28;20186;-76
2023/09/15 02:39:04;;;;;;;5.57;3.47;;;;;;;9.97;100.00;100451.19;5032852;28;20201;-76
2023/09/15 02:41:29;;;;;;;3.90;3.13;;;;;;;9.98;100.00;100446.88;5048940;28;20734;-75
2023/09/15 02:43:54;;;;;;;5.70;3.20;;;;;;;9.93;100.00;100439.38;5056536;28;20541;-76
2023/09/15 02:46:20;;;;;;;6.30;3.17;;;;;;;9.93;100.00;100447.09;5072792;28;20180;-77
2023/09/15 02:48:45;;;;;;;7.00;3.40;;;;;;;9.88;100.00;100443.09;5072811;28;20192;-76
2023/09/15 02:51:10;;;;;;;5.07;3.30;;;;;;;9.89;100.00;100443.00;5037560;28;20221;-77
2023/09/15 02:53:35;;;;;;;6.53;4.07;;;;;;;9.82;100.00;100446.75;5046368;28;20193;-76
2023/09/15 02:56:05;;;;;;;4.00;3.37;;;;;;;9.81;100.00;100440.78;5072317;28;20180;-76
2023/09/15 02:58:31;;;;;;;5.43;3.50;;;;;;;9.79;100.00;100439.19;5055476;28;20227;-76
2023/09/15 03:00:57;;;;;;;5.37;3.50;;;;;;;9.79;100.00;100434.06;5040706;28;20322;-76
2023/09/15 03:03:25;;;;;;;6.57;3.50;;;;;;;9.84;100.00;100438.06;5063166;28;20671;-76
2023/09/15 03:06:02;;;;;;;4.83;3.57;;;;;;;9.74;100.00;100446.28;5052266;28;20595;-76
2023/09/15 03:08:28;;;;;;;8.00;3.40;;;;;;;9.76;100.00;100439.31;5040493;28;20190;-76
2023/09/15 03:10:54;;;;;;;6.53;4.10;;;;;;;9.72;100.00;100436.06;5041975;28;20225;-75
2023/09/15 03:13:19;;;;;;;7.27;4.07;;;;;;;9.74;100.00;100433.44;5036713;28;20204;-76
2023/09/15 03:15:45;;;;;;;6.27;3.80;;;;;;;9.75;100.00;100437.66;5053331;28;20203;-77
2023/09/15 03:18:11;;;;;;;6.23;4.27;;;;;;;9.77;100.00;100441.00;5048510;28;20181;-77
2023/09/15 03:20:36;;;;;;;7.23;4.10;;;;;;;9.67;100.00;100432.88;5038763;28;20803;-76
2023/09/15 03:23:01;;;;;;;5.87;3.53;;;;;;;9.69;100.00;100436.22;5063475;28;20605;-76
2023/09/15 03:25:27;;;;;;;4.00;3.60;;;;;;;9.66;100.00;100437.19;5052324;28;20173;-75
2023/09/15 03:27:53;;;;;;;5.97;3.50;;;;;;;9.67;100.00;100436.28;5051584;28;20173;-76
2023/09/15 03:30:18;;;;;;;4.27;3.40;;;;;;;9.68;100.00;100435.38;5024866;28;20247;-75
2023/09/15 03:32:43;;;;;;;6.40;3.60;;;;;;;9.65;100.00;100432.94;5072828;28;20648;-77
2023/09/15 03:35:09;;;;;;;7.33;3.87;;;;;;;9.65;100.00;100435.53;5071696;28;20216;-76
2023/09/15 03:37:34;;;;;;;5.97;3.90;;;;;;;9.69;100.00;100431.09;5068406;28;20683;-76
2023/09/15 03:39:59;;;;;;;5.93;3.60;;;;;;;9.64;100.00;100426.13;5051897;28;20181;-75
2023/09/15 03:42:25;;;;;;;4.67;3.87;;;;;;;9.65;100.00;100422.69;5070744;28;20228;-76
2023/09/15 03:44:50;;;;;;;7.17;3.57;;;;;;;9.64;100.00;100420.19;5041440;28;20740;-76
2023/09/15 03:47:16;;;;;;;6.43;3.67;;;;;;;9.69;100.00;100420.81;5057167;28;20178;-77
2023/09/15 03:49:41;;;;;;;6.63;3.60;;;;;;;9.73;100.00;100429.22;5060362;28;20188;-77
2023/09/15 03:52:07;;;;;;;5.20;3.60;;;;;;;9.71;100.00;100425.88;5046652;28;20311;-76
2023/09/15 03:54:32;;;;;;;5.13;3.70;;;;;;;9.74;100.00;100420.59;5050375;28;20268;-76
2023/09/15 03:56:57;;;;;;;8.83;4.07;;;;;;;9.75;100.00;100422.25;5032352;28;20182;-76
2023/09/15 03:59:23;;;;;;;4.03;3.30;;;;;;;9.73;100.00;100422.31;5046875;28;20196;-76
2023/09/15 04:01:48;;;;;;;4.87;3.63;;;;;;;9.67;100.00;100420.88;5035860;28;20225;-76
2023/09/15 04:04:13;;;;;;;5.77;3.93;;;;;;;9.68;100.00;100424.28;5035620;28;20608;-76
2023/09/15 04:06:39;;;;;;;5.90;3.87;;;;;;;9.69;100.00;100423.38;5031724;28;20205;-75
2023/09/15 04:09:12;;;;;;;6.33;4.00;;;;;;;9.73;100.00;100426.63;5046184;28;20243;-76
2023/09/15 04:11:37;;;;;;;8.07;3.73;;;;;;;9.74;100.00;100416.28;5033787;28;20424;-76
2023/09/15 04:14:03;;;;;;;5.23;3.93;;;;;;;9.73;100.00;100421.50;5031973;28;20185;-76
2023/09/15 04:16:29;;;;;;;3.40;3.10;;;;;;;9.72;100.00;100418.06;5031716;28;20174;-75
2023/09/15 04:18:54;;;;;;;5.30;3.67;;;;;;;9.68;100.00;100422.53;5032739;28;21141;-77
2023/09/15 04:21:19;;;;;;;3.97;3.67;;;;;;;9.64;100.00;100423.56;5042070;28;20277;-77
2023/09/15 04:23:44;;;;;;;7.10;3.90;;;;;;;9.64;100.00;100417.63;5056671;28;20226;-78
2023/09/15 04:26:10;;;;;;;5.47;3.67;;;;;;;9.63;100.00;100415.94;5050625;28;20280;-77
2023/09/15 04:28:35;;;;;;;10.20;4.27;;;;;;;9.62;100.00;100421.97;5050582;28;20652;-77
2023/09/15 04:31:00;;;;;;;7.80;4.07;;;;;;;9.50;100.00;100419.06;5036151;28;20235;-78
2023/09/15 04:33:26;;;;;;;5.67;4.13;;;;;;;9.53;100.00;100425.81;5016973;28;20226;-78
2023/09/15 04:35:51;;;;;;;4.33;3.87;;;;;;;9.48;100.00;100420.84;5039342;28;20212;-78
2023/09/15 04:38:17;;;;;;;4.63;3.57;;;;;;;9.41;100.00;100418.66;5028230;28;20179;-78
2023/09/15 04:40:43;;;;;;;4.43;3.13;;;;;;;9.45;100.00;100422.72;5026298;28;20343;-78
2023/09/15 04:43:08;;;;;;;5.53;4.20;;;;;;;9.36;100.00;100424.81;5039236;28;20264;-78
2023/09/15 04:45:33;;;;;;;6.70;3.90;;;;;;;9.41;100.00;100423.78;5050365;28;20200;-77
2023/09/15 04:47:58;;;;;;;4.50;3.93;;;;;;;9.43;100.00;100417.66;5051751;28;20260;-76
2023/09/15 04:50:24;;;;;;;7.23;4.07;;;;;;;9.34;100.00;100418.91;5044708;28;20240;-76
2023/09/15 04:52:49;;;;;;;6.07;3.83;;;;;;;9.42;100.00;100417.75;5030099;28;20174;-76
2023/09/15 04:55:14;;;;;;;6.03;3.77;;;;;;;9.38;100.00;100414.47;5044839;28;20238;-77
2023/09/15 04:57:39;;;;;;;6.57;4.37;;;;;;;9.49;100.00;100414.00;5051377;28;20178;-76
2023/09/15 05:00:12;;;;;;;5.53;4.13;;;;;;;9.51;100.00;100417.31;5042011;28;20545;-77
2023/09/15 05:02:37;;;;;;;4.10;3.67;;;;;;;9.48;100.00;100415.72;5065309;28;20185;-76
2023/09/15 05:05:03;;;;;;;5.20;3.80;;;;;;;9.50;100.00;100425.91;5049573;28;20255;-76
2023/09/15 05:07:28;;;;;;;8.10;4.30;;;;;;;9.54;100.00;100417.19;5050072;28;20177;-76
2023/09/15 05:09:53;;;;;;;4.47;4.07;;;;;;;9.57;100.00;100434.19;5037768;28;20524;-76
2023/09/15 05:12:19;;;;;;;9.63;4.53;;;;;;;9.57;100.00;100419.59;5073146;28;20224;-76
2023/09/15 05:14:44;;;;;;;4.97;3.90;;;;;;;9.58;100.00;100429.00;5049370;28;20636;-77
2023/09/15 05:17:09;;;;;;;6.57;3.97;;;;;;;9.62;100.00;100427.13;5053660;28;20539;-77
2023/09/15 05:19:34;;;;;;;7.40;4.60;;;;;;;9.65;100.00;100426.97;5053709;28;20269;-76
2023/09/15 05:22:00;;;;;;;7.60;5.70;;;;;;;9.74;100.00;100436.00;5036966;28;20324;-71
2023/09/15 05:24:25;;;;;;;8.27;5.33;;;;;;;9.77;100.00;100430.72;5055201;28;20184;-71
2023/09/15 05:26:51;;;;;;;5.93;4.33;;;;;;;9.74;100.00;100433.44;5062880;28;20180;-73
2023/09/15 05:29:16;;;;;;;8.23;4.27;;;;;;;9.85;100.00;100434.59;5054930;28;20215;-72
2023/09/15 05:31:41;;;;;;;11.47;4.47;;;;;;;9.99;100.00;100438.28;5056836;28;20269;-66
2023/09/15 05:34:08;;;;;;;12.70;4.37;;;;;;;10.09;100.00;100434.34;5057451;28;20217;-72
2023/09/15 05:36:33;;;;;;;7.40;4.23;;;;;;;10.15;100.00;100438.38;5069490;28;20210;-72
2023/09/15 05:38:59;;;;;;;8.50;4.97;;;;;;;10.18;100.00;100439.06;5066832;28;20256;-72
2023/09/15 05:41:24;;;;;;;8.43;4.80;;;;;;;10.15;100.00;100446.09;5053158;28;20260;-71
2023/09/15 05:43:49;;;;;;;6.77;4.40;;;;;;;10.38;100.00;100444.19;5061671;28;20211;-73
2023/09/15 05:46:14;;;;;;;8.20;3.80;;;;;;;10.44;100.00;100437.03;5073547;28;20188;-73
2023/09/15 05:48:40;;;;;;;7.80;5.07;;;;;;;10.59;100.00;100443.16;5074060;28;20542;-74
2023/09/15 05:51:06;;;;;;;6.83;4.10;;;;;;;10.73;100.00;100439.91;5063019;28;20335;-74
2023/09/15 05:53:32;;;;;;;9.17;4.83;;;;;;;10.91;100.00;100438.13;5073282;28;20189;-73
2023/09/15 05:55:57;;;;;;;9.30;4.63;;;;;;;10.92;100.00;100439.81;5062309;28;20235;-73
2023/09/15 05:58:23;;;;;;;9.60;4.63;;;;;;;11.08;100.00;100432.13;5045692;28;20260;-73
2023/09/15 06:00:50;;;;;;;7.07;4.70;;;;;;;11.17;100.00;100427.44;5044412;28;20220;-74
2023/09/15 06:03:16;;;;;;;6.67;4.03;;;;;;;11.21;100.00;100434.06;5055924;28;20303;-74
2023/09/15 06:05:41;;;;;;;8.17;4.80;;;;;;;11.19;100.00;100431.59;5061241;28;20285;-73
2023/09/15 06:08:08;;;;;;;5.60;4.33;;;;;;;11.39;100.00;100430.53;5058226;28;20180;-74
2023/09/15 06:10:35;;;;;;;6.73;4.60;;;;;;;11.41;100.00;100431.28;5060288;28;20243;-75
2023/09/15 06:13:00;;;;;;;7.07;4.30;;;;;;;11.58;100.00;100432.13;5072894;28;20191;-75
2023/09/15 06:15:25;;;;;;;6.97;3.87;;;;;;;11.70;100.00;100428.91;5065247;28;20640;-74
2023/09/15 06:17:51;;;;;;;7.83;4.40;;;;;;;11.84;100.00;100433.31;5052533;28;20181;-74
2023/09/15 06:20:16;;;;;;;7.50;4.80;;;;;;;11.90;100.00;100432.16;5049260;28;20193;-75
2023/09/15 06:22:41;;;;;;;8.83;4.07;;;;;;;11.90;100.00;100432.97;5060121;28;20193;-75
2023/09/15 06:25:07;;;;;;;6.40;4.00;;;;;;;12.04;100.00;100432.22;5059685;28;20596;-74
2023/09/15 06:27:35;;;;;;;6.13;3.80;;;;;;;12.05;100.00;100433.91;5073447;28;20177;-75
2023/09/15 06:30:03;;;;;;;5.67;3.70;;;;;;;12.30;100.00;100431.72;5057336;28;20281;-75
2023/09/15 06:32:28;;;;;;;6.23;4.13;;;;;;;12.32;100.00;100430.72;5037486;28;20211;-75
2023/09/15 06:34:53;;;;;;;9.90;4.20;;;;;;;12.48;100.00;100427.22;5053531;28;20261;-75
2023/09/15 06:37:19;;;;;;;11.43;3.77;;;;;;;12.78;100.00;100426.41;5052186;28;20181;-76
2023/09/15 06:39:44;;;;;;;5.33;3.60;;;;;;;13.12;100.00;100432.97;5053623;28;20528;-75
2023/09/15 06:42:10;;;;;;;5.70;4.17;;;;;;;13.48;100.00;100431.72;5058331;28;20229;-75
2023/09/15 06:44:36;;;;;;;7.00;4.13;;;;;;;13.79;100.00;100427.22;5071781;28;20746;-75
2023/09/15 06:47:02;;;;;;;10.03;3.83;;;;;;;14.82;100.00;100418.88;5061166;28;20181;-75
2023/09/15 06:49:28;;;;;;;7.27;3.47;;;;;;;15.94;100.00;100420.66;5053218;28;20253;-74
2023/09/15 06:51:54;;;;;;;7.37;3.33;;;;;;;17.04;100.00;100417.78;5056231;28;20220;-75
2023/09/15 06:54:21;;;;;;;5.97;3.83;;;;;;;18.03;100.00;100414.44;5053639;28;20648;-74
2023/09/15 06:56:46;;;;;;;6.73;3.20;;;;;;;18.36;100.00;100418.66;5051920;28;20323;-76
2023/09/15 06:59:11;;;;;;;6.43;3.57;;;;;;;20.07;100.00;100418.06;5050906;28;20272;-76
2023/09/15 07:01:37;;;;;;;7.77;3.23;;;;;;;21.19;100.00;100413.97;5053894;28;20236;-73
2023/09/15 07:04:03;;;;;;;5.40;3.27;;;;;;;21.81;95.71;100415.13;5041470;28;20183;-76
2023/09/15 07:06:28;;;;;;;8.47;3.83;;;;;;;22.20;93.44;100418.25;5026251;28;20209;-76
2023/09/15 07:08:54;;;;;;;6.50;3.17;;;;;;;22.12;93.47;100412.13;5033295;28;20509;-75
2023/09/15 07:11:19;;;;;;;8.00;3.50;;;;;;;22.57;90.93;100421.66;5043250;28;20228;-75
2023/09/15 07:13:44;;;;;;;5.35;3.20;;;;;;;22.81;88.83;100420.97;5030792;28;20534;-76
2023/09/15 07:16:09;;;;;;;6.53;4.00;;;;;;;23.64;83.99;100422.13;5032876;28;20228;-77
2023/09/15 07:18:36;;;;;;;4.97;3.08;;;;;;;23.26;82.33;100426.09;5019732;28;20181;-75
2023/09/15 07:21:01;;;;;;;4.38;3.78;;;;;;;22.75;88.07;100429.47;5038288;28;20560;-76
2023/09/15 07:23:26;;;;;;;8.00;4.43;;;;;;;22.69;87.65;100428.28;5042710;28;20181;-77
2023/09/15 07:25:51;;;;;;;5.63;4.35;;;;;;;22.32;89.55;100424.06;5046555;28;20197;-75
2023/09/15 07:28:17;;;;;;;9.70;5.32;;;;;;;22.91;86.69;100427.88;5037123;28;20539;-74
2023/09/15 07:30:42;;;;;;;9.02;4.07;;;;;;;22.95;85.69;100424.00;5007195;28;20230;-75
2023/09/15 07:33:08;;;;;;;5.90;4.28;;;;;;;22.07;90.97;100420.44;5036761;28;20230;-74
2023/09/15 07:35:35;;;;;;;6.85;4.05;;;;;;;22.93;87.70;100413.63;5052736;28;20220;-75
2023/09/15 07:38:02;;;;;;;6.13;4.20;;;;;;;22.68;84.58;100425.81;5051204;28;20224;-76
2023/09/15 07:40:27;;;;;;;6.35;4.13;;;;;;;22.03;91.56;100414.69;5044408;28;20236;-76
2023/09/15 07:42:52;;;;;;;5.30;4.00;;;;;;;22.35;91.57;100407.22;5050203;28;20182;-75
2023/09/15 07:45:18;;;;;;;7.32;4.10;;;;;;;23.57;83.15;100407.97;5052314;28;20191;-72
2023/09/15 07:47:43;;;;;;;9.98;4.40;;;;;;;22.97;85.75;100409.75;5046234;28;20540;-72
2023/09/15 07:50:08;;;;;;;10.10;3.92;;;;;;;23.59;80.31;100408.66;5041394;28;20220;-65
2023/09/15 07:52:34;;;;;;;8.82;5.10;;;;;;;22.66;88.42;100415.50;5026254;28;20186;-68
2023/09/15 07:54:59;;;;;;;5.28;4.78;;;;;;;22.14;90.80;100415.41;5032963;28;20289;-68
2023/09/15 07:57:25;;;;;;;9.05;4.70;;;;;;;22.54;89.50;100414.09;5041130;28;20173;-64
2023/09/15 07:59:50;;;;;;;7.20;4.13;;;;;;;22.38;90.22;100412.19;5035717;28;20170;-77
2023/09/15 08:02:15;;;;;;;7.93;4.93;;;;;;;22.99;85.45;100406.97;5043026;28;20232;-75
2023/09/15 08:04:41;;;;;;;6.15;4.90;;;;;;;22.62;90.42;100413.31;5049740;28;20264;-70
2023/09/15 08:07:07;;;;;;;7.82;4.93;;;;;;;23.21;81.85;100410.84;5053445;28;20586;-68
2023/09/15 08:09:32;;;;;;;5.45;4.28;;;;;;;22.70;89.15;100416.00;5043124;28;20181;-67
2023/09/15 08:12:00;;;;;;;6.28;4.47;;;;;;;22.56;90.62;100414.75;5044114;28;20228;-65
2023/09/15 08:14:26;;;;;;;5.35;3.85;;;;;;;22.59;90.23;100408.38;5040136;28;20189;-65
2023/09/15 08:16:52;;;;;;;8.23;4.53;;;;;;;23.18;85.74;100406.75;5051800;28;20643;-66
2023/09/15 08:19:19;;;;;;;10.43;5.38;;;;;;;23.41;83.25;100395.63;5052747;28;20185;-64
2023/09/15 08:21:45;;;;;;;7.32;4.53;;;;;;;23.69;78.06;100397.97;5036423;28;20236;-68
2023/09/15 08:24:10;;;;;;;8.82;4.55;;;;;;;23.35;80.06;100404.97;5049655;28;20546;-69
2023/09/15 08:26:35;;;;;;;6.65;4.57;;;;;;;23.81;77.29;100401.94;5045605;28;20202;-62
2023/09/15 08:29:01;;;;;;;7.82;5.05;;;;;;;23.45;81.35;100399.56;5047313;28;20190;-69
2023/09/15 08:31:28;;;;;;;7.20;5.18;;;;;;;22.01;91.35;100402.72;5043035;28;20358;-67
2023/09/15 08:33:54;;;;;;;5.18;4.68;;;;;;;22.43;93.31;100388.16;5044995;28;20173;-65
2023/09/15 08:36:19;;;;;;;8.45;5.03;;;;;;;22.47;92.16;100399.97;5051182;28;20178;-66
2023/09/15 08:38:44;;;;;;;6.85;4.43;;;;;;;23.34;86.88;100390.22;5049669;28;20217;-64
2023/09/15 08:41:21;;;;;;;5.30;4.80;;;;;;;23.84;77.54;100395.53;5040348;28;20224;-67
2023/09/15 08:43:46;;;;;;;6.18;4.60;;;;;;;24.38;75.28;100396.84;5067736;28;20264;-68
2023/09/15 08:46:14;;;;;;;4.40;4.00;;;;;;;24.32;75.55;100401.81;5060576;28;20271;-66
2023/09/15 08:48:40;;;;;;;7.72;4.03;;;;;;;24.61;73.87;100396.94;5038427;28;20299;-64
2023/09/15 08:51:06;;;;;;;6.78;4.57;;;;;;;24.34;75.69;100399.81;5035418;28;20236;-66
2023/09/15 08:53:32;;;;;;;5.45;4.28;;;;;;;24.83;71.99;100397.25;5048871;28;20206;-66
2023/09/15 08:55:58;;;;;;;12.55;4.95;;;;;;;25.97;61.57;100389.69;5052263;28;20657;-72
2023/09/15 08:58:24;;;;;;;6.32;4.40;;;;;;;27.43;52.16;100394.53;5049059;28;20223;-70
2023/09/15 09:00:50;;;;;;;7.15;5.07;;;;;;;27.44;50.01;100400.63;5044859;28;20696;-65
2023/09/15 09:03:16;;;;;;;13.10;4.85;;;;;;;25.84;58.49;100405.25;5039787;28;20185;-78
2023/09/15 09:05:46;;;;;;;5.13;4.63;;;;;;;26.68;53.97;100407.00;5051341;28;20212;-68
2023/09/15 09:08:12;;;;;;;5.88;4.70;;;;;;;25.86;58.28;100403.28;5049422;28;20194;-65
2023/09/15 09:10:38;;;;;;;5.82;4.15;;;;;;;27.50;51.02;100403.34;5042784;28;20227;-67
2023/09/15 09:13:03;;;;;;;6.78;4.43;;;;;;;27.34;49.35;100407.03;5040802;28;20229;-70
2023/09/15 09:15:32;;;;;;;9.40;4.85;;;;;;;27.82;47.66;100395.09;5036407;28;20562;-70
2023/09/15 09:17:57;;;;;;;7.38;4.22;;;;;;;29.25;44.01;100404.50;5025053;28;20194;-70
2023/09/15 09:20:26;;;;;;;6.85;4.55;;;;;;;28.73;44.24;100401.47;5024056;28;20221;-71
2023/09/15 09:22:52;;;;;;;5.75;4.20;;;;;;;27.90;47.74;100397.63;5042742;28;20236;-65
2023/09/15 09:25:26;;;;;;;9.27;5.07;;;;;;;26.78;51.16;100396.19;5035384;28;20186;-66
2023/09/15 09:27:51;;;;;;;6.97;4.80;;;;;;;26.27;53.84;100392.41;5029184;28;20177;-69
2023/09/15 09:30:16;;;;;;;5.97;4.55;;;;;;;26.37;58.27;100393.00;5031341;28;20189;-68
2023/09/15 09:32:42;;;;;;;5.88;4.75;;;;;;;26.22;57.17;100392.97;5024733;28;20178;-70
2023/09/15 09:35:07;;;;;;;8.68;5.50;;;;;;;26.21;56.37;100387.84;5037213;28;20189;-70
2023/09/15 09:37:32;;;;;;;6.35;4.78;;;;;;;27.08;52.66;100388.22;5029339;28;20192;-70
2023/09/15 09:39:58;;;;;;;4.85;4.35;;;;;;;27.23;49.46;100387.19;5030249;28;20186;-67
2023/09/15 09:42:24;;;;;;;5.68;4.55;;;;;;;26.51;53.59;100382.63;5047515;28;20233;-69
2023/09/15 09:44:52;;;;;;;14.25;4.30;;;;;;;28.40;47.27;100379.06;5066319;28;20176;-72
2023/09/15 09:47:18;;;;;;;12.10;4.32;;;;;;;27.43;51.35;100373.41;5050944;28;20186;-78
2023/09/15 09:49:44;;;;;;;5.60;4.72;;;;;;;28.36;47.78;100366.44;5065491;28;20188;-68
2023/09/15 09:52:13;;;;;;;5.95;5.05;;;;;;;28.18;46.10;100373.88;5019615;28;20960;-71
2023/09/15 09:54:38;;;;;;;4.68;4.28;;;;;;;28.74;45.41;100369.53;5045987;28;20177;-65
2023/09/15 09:57:04;;;;;;;5.20;4.63;;;;;;;30.20;40.95;100372.59;5030404;28;20297;-67
2023/09/15 09:59:29;;;;;;;8.55;4.28;;;;;;;29.20;43.79;100377.81;5032917;28;20291;-68
2023/09/15 10:01:54;;;;;;;8.77;4.45;;;;;;;28.72;45.52;100365.44;5023751;28;20230;-76
2023/09/15 10:04:21;;;;;;;5.60;4.05;;;;;;;27.04;49.50;100370.13;5034105;28;20594;-66
2023/09/15 10:06:47;;;;;;;5.43;4.45;;;;;;;27.76;49.13;100366.78;5036083;28;20206;-62
2023/09/15 10:09:14;;;;;;;6.57;4.13;;;;;;;27.29;50.40;100359.22;5036355;28;20401;-64
2023/09/15 10:11:39;;;;;;;5.07;4.32;;;;;;;29.36;44.44;100351.00;5023039;28;20229;-64
2023/09/15 10:14:06;;;;;;;4.57;4.07;;;;;;;29.48;42.60;100356.50;5047022;28;20182;-65
2023/09/15 10:16:32;;;;;;;4.85;4.35;;;;;;;29.52;43.25;100359.56;5034709;28;20193;-68
2023/09/15 10:18:59;;;;;;;5.35;4.85;;;;;;;29.79;42.51;100357.72;5034624;28;20275;-68
2023/09/15 10:21:25;;;;;;;9.52;4.80;;;;;;;30.49;40.19;100367.06;5033794;28;20602;-69
2023/09/15 10:24:02;;;;;;;6.82;5.45;;;;;;;28.47;43.23;100364.06;5053728;28;20177;-68
2023/09/15 10:26:27;;;;;;;10.23;4.72;;;;;;;27.58;49.50;100346.13;5053455;28;20621;-71
2023/09/15 10:28:54;;;;;;;7.20;4.53;;;;;;;25.58;63.50;100344.06;5052522;28;20192;-77
2023/09/15 10:31:22;;;;;;;10.40;4.43;;;;;;;24.89;73.25;100342.13;5035661;28;20228;-76
2023/09/15 10:33:47;;;;;;;6.97;4.65;;;;;;;23.93;82.99;100342.03;5027092;28;20973;-73
2023/09/15 10:36:15;;;;;;;6.35;4.88;;;;;;;22.59;92.83;100334.97;5034568;28;20194;-75
2023/09/15 10:38:41;;;;;;;6.53;5.22;;;;;;;22.53;95.13;100324.13;5028609;28;20231;-64
2023/09/15 10:41:09;;;;;;;7.75;4.93;;;;;;;22.46;96.92;100320.50;5031217;28;20657;-65
2023/09/15 10:43:34;;;;;;;8.13;4.40;;;;;;;22.24;100.00;100316.59;5040799;28;20180;-74
2023/09/15 10:46:03;;;;;;;12.73;5.53;;;;;;;22.09;100.00;100313.69;5044180;28;20182;-64
2023/09/15 10:48:38;;;;;;;7.03;5.03;;;;;;;21.56;100.00;100308.41;5045283;28;20182;-78
2023/09/15 10:51:07;;;;;;;7.53;6.17;;;;;;;21.40;100.00;100309.03;5033778;28;20220;-73
2023/09/15 10:53:49;;;;;;;8.67;5.53;;;;;;;21.01;100.00;100303.25;5024839;28;20251;-70
2023/09/15 10:56:17;;;;;;;6.70;5.07;;;;;;;21.17;100.00;100298.19;5033852;28;20186;-66
2023/09/15 10:58:43;;;;;;;6.33;5.67;;;;;;;21.10;100.00;100294.53;5032514;28;20178;-65
2023/09/15 11:01:10;;;;;;;8.13;5.83;;;;;;;21.21;100.00;100294.31;5022487;28;20271;-65
2023/09/15 11:03:37;;;;;;;9.73;5.63;;;;;;;21.28;100.00;100289.31;5061227;28;20181;-74
2023/09/15 11:06:14;;;;;;;9.33;5.47;;;;;;;21.39;100.00;100290.88;5053160;28;20300;-64
2023/09/15 11:08:39;;;;;;;6.60;5.20;;;;;;;21.43;100.00;100295.66;5055663;28;20177;-65
2023/09/15 11:11:09;;;;;;;8.17;6.27;;;;;;;21.30;100.00;100282.13;5034230;28;20255;-80
2023/09/15 11:13:35;;;;;;;9.40;5.47;;;;;;;21.36;100.00;100283.31;5046044;28;20177;-74
2023/09/15 11:16:00;;;;;;;8.67;5.53;;;;;;;21.39;100.00;100289.06;5058272;28;20178;-72
2023/09/15 11:18:26;;;;;;;6.77;6.07;;;;;;;21.30;100.00;100282.13;5063913;28;20182;-63